Naikaimaru No.25 — JD2137 — position and weather

sailwx.info

Track history (hours):
 
Tides and Currents Weather Stations Pressure Air Temp Water Temp Dewpoint Dewpoint Depression Visibility Wind Speed Wind Dir Waves Ship Positions

Naikaimaru No.25

Last reported at 2017-Sep-20 02:14 UTC. Time now 2017-Sep-20 18:19 UTC.
Position N 34°05' E 135°03'.

Length 104 m; draft 5.4 m.

Type: Tanker. MMSI: 431501829.

Date/timePositionNaut miles runAvg speedWind from/ knotsBaromVisibWave heightAir tempDewpointWater temp
2017-Sep-20 02:14N 34°05' E 135°03'314.0
2017-Sep-20 02:00N 34°08' E 135°04'4 6.4
2017-Sep-20 01:22N 34°10' E 135°09'0 0.1
2017-Sep-20 00:37N 34°10' E 135°09'0 0.1
2017-Sep-20 00:09N 34°10' E 135°09'0 0.0
2017-Sep-19 23:50N 34°10' E 135°09'0 0.0
2017-Sep-19 23:29N 34°10' E 135°09'0 0.0
2017-Sep-19 23:00N 34°10' E 135°09'0 0.1
2017-Sep-19 22:30N 34°10' E 135°09'0 0.2
2017-Sep-19 21:57N 34°09' E 135°09'0 0.1
2017-Sep-19 21:00N 34°09' E 135°09'0 0.0
2017-Sep-19 19:55N 34°10' E 135°09'0 0.1
2017-Sep-19 19:23N 34°09' E 135°09'0 0.1
2017-Sep-19 18:52N 34°09' E 135°09'0 0.1
2017-Sep-19 17:22N 34°10' E 135°09'0 0.0
2017-Sep-19 16:53N 34°10' E 135°09'0 0.0
2017-Sep-19 16:30N 34°10' E 135°09'0 0.0
2017-Sep-19 16:00N 34°10' E 135°09'0 0.0
2017-Sep-19 15:30N 34°09' E 135°09'0 0.0
2017-Sep-19 14:55N 34°09' E 135°09'0 0.0
2017-Sep-19 14:30N 34°09' E 135°09'0 0.1
2017-Sep-19 13:53N 34°09' E 135°09'0 0.1
2017-Sep-19 13:24N 34°09' E 135°09'0 0.0
2017-Sep-19 12:55N 34°09' E 135°09'0 0.1
2017-Sep-19 12:20N 34°09' E 135°09'0 0.0
2017-Sep-19 11:57N 34°09' E 135°09'0 0.1
2017-Sep-19 11:16N 34°10' E 135°09'0 0.0
2017-Sep-19 09:17N 34°10' E 135°09'0 0.0
2017-Sep-19 07:40N 34°10' E 135°09'0 0.0
2017-Sep-19 07:30N 34°10' E 135°09'0 0.0
2017-Sep-19 06:46N 34°10' E 135°09'0 0.0
2017-Sep-19 06:21N 34°10' E 135°09'0 0.0
2017-Sep-19 05:59N 34°09' E 135°09'0 0.1
2017-Sep-19 05:06N 34°09' E 135°09'0 0.1
2017-Sep-19 05:00N 34°09' E 135°09'0 0.0
2017-Sep-19 03:14N 34°09' E 135°09'0 0.0
2017-Sep-19 02:58N 34°09' E 135°09'0 0.0
2017-Sep-19 01:55N 34°09' E 135°09'0 0.0
2017-Sep-19 01:29N 34°09' E 135°09'0 0.0
2017-Sep-18 23:20N 34°09' E 135°09'0 0.0
2017-Sep-18 22:57N 34°09' E 135°09'0 0.0
2017-Sep-18 22:27N 34°10' E 135°09'0 0.0
2017-Sep-18 22:00N 34°10' E 135°09'0 0.0
2017-Sep-18 21:30N 34°10' E 135°09'0 0.0
2017-Sep-18 20:58N 34°10' E 135°09'0 0.0
2017-Sep-18 20:30N 34°10' E 135°09'0 0.0
2017-Sep-18 19:46N 34°10' E 135°09'0 0.0
2017-Sep-18 19:29N 34°10' E 135°09'0 0.0
2017-Sep-18 18:59N 34°10' E 135°09'0 0.0
2017-Sep-18 18:28N 34°10' E 135°09'0 0.0
2017-Sep-18 17:59N 34°10' E 135°09'0 0.0
2017-Sep-18 17:26N 34°10' E 135°09'0 0.0
2017-Sep-18 17:00N 34°09' E 135°09'0 0.0
2017-Sep-18 16:29N 34°09' E 135°09'0 0.0
2017-Sep-18 15:57N 34°09' E 135°09'0 0.1
2017-Sep-18 15:28N 34°09' E 135°09'0 0.0
2017-Sep-18 14:51N 34°09' E 135°09'0 0.0
2017-Sep-18 14:30N 34°09' E 135°09'0 0.1
2017-Sep-18 13:56N 34°09' E 135°09'0 0.1
2017-Sep-18 13:29N 34°10' E 135°09'0 0.0
2017-Sep-18 09:20N 34°10' E 135°09'2 6.7
2017-Sep-18 09:00N 34°09' E 135°11'1 0.2
2017-Sep-18 06:00N 34°09' E 135°12'0 0.0
2017-Sep-18 05:11N 34°09' E 135°12'0 0.0
2017-Sep-18 04:15N 34°09' E 135°12'0 0.0
2017-Sep-18 04:00N 34°09' E 135°12'0 0.0
2017-Sep-18 03:30N 34°09' E 135°12'0 0.0
2017-Sep-18 02:58N 34°09' E 135°12'0 0.5
2017-Sep-18 02:18N 34°09' E 135°12'1 4.8
2017-Sep-18 02:00N 34°09' E 135°10'5 9.2
2017-Sep-18 01:30N 34°11' E 135°05'713.9
2017-Sep-18 01:00N 34°16' E 134°59'713.7
2017-Sep-18 00:29N 34°23' E 135°01'713.8
2017-Sep-18 00:00N 34°27' E 135°07'4 7.3
2017-Sep-17 23:30N 34°29' E 135°11'0 0.1
2017-Sep-17 22:58N 34°29' E 135°11'0 0.0
2017-Sep-17 17:10N 34°29' E 135°11'0 0.0
2017-Sep-17 16:58N 34°29' E 135°11'0 0.0
2017-Sep-17 16:16N 34°29' E 135°11'0 0.0
2017-Sep-17 15:58N 34°29' E 135°11'0 0.1
2017-Sep-17 15:28N 34°29' E 135°11'0 0.1
2017-Sep-17 12:40N 34°29' E 135°11'0 0.1
2017-Sep-17 11:10N 34°29' E 135°10'0 0.0
2017-Sep-17 10:58N 34°29' E 135°10'0 0.0
2017-Sep-17 04:27N 34°29' E 135°10'0 0.0
2017-Sep-17 03:35N 34°29' E 135°10'0 0.0
2017-Sep-17 03:29N 34°29' E 135°10'0 0.0
2017-Sep-17 03:00N 34°29' E 135°10'0 0.0
2017-Sep-17 00:37N 34°29' E 135°10'0 0.0
2017-Sep-17 00:28N 34°29' E 135°10'0 0.0
2017-Sep-17 00:00N 34°29' E 135°10'0 0.0
2017-Sep-16 23:30N 34°29' E 135°10'0 0.0
2017-Sep-16 22:56N 34°29' E 135°10'1 1.4
2017-Sep-16 22:30N 34°29' E 135°10'612.4
2017-Sep-16 22:00N 34°34' E 135°05'610.9
2017-Sep-16 21:29N 34°37' E 134°59'1 0.0
2017-Sep-15 12:56N 34°37' E 134°58'510.5
2017-Sep-15 12:30N 34°36' E 135°04'612.9
2017-Sep-15 12:00N 34°34' E 135°11'713.8
2017-Sep-15 11:30N 34°33' E 135°19'4 0.4
2017-Sep-15 01:20N 34°32' E 135°24'3 7.7
2017-Sep-15 01:00N 34°32' E 135°21'2 0.2
2017-Sep-14 16:39N 34°32' E 135°19'0 0.7
2017-Sep-14 16:29N 34°32' E 135°20'5 9.7
2017-Sep-14 15:58N 34°33' E 135°25'0 0.0
2017-Sep-14 07:58N 34°33' E 135°25'3 7.4
2017-Sep-14 07:30N 34°33' E 135°21'1 1.8
2017-Sep-14 06:48N 34°32' E 135°20'0 0.0
2017-Sep-14 03:46N 34°32' E 135°20'0 0.1
2017-Sep-14 03:09N 34°32' E 135°20'0 0.4
2017-Sep-14 03:00N 34°32' E 135°20'0 0.0
2017-Sep-14 01:30N 34°32' E 135°20'0 0.0
2017-Sep-13 23:41N 34°32' E 135°20'0 0.0
2017-Sep-13 23:24N 34°32' E 135°20'0 0.1
2017-Sep-13 22:56N 34°32' E 135°20'510.9
2017-Sep-13 22:30N 34°32' E 135°14'612.9
2017-Sep-13 22:00N 34°33' E 135°06'815.1
2017-Sep-13 21:30N 34°37' E 134°58'  
Track history (hours):
 
Tides and Currents Weather Stations Pressure Air Temp Water Temp Dewpoint Dewpoint Depression Visibility Wind Speed Wind Dir Waves Ship Positions

Naikaimaru No.25

Last reported at 2017-Sep-20 02:14 UTC. Time now 2017-Sep-20 18:19 UTC.
Position N 34°05' E 135°03'.

Length 104 m; draft 5.4 m.

Type: Tanker. MMSI: 431501829.

Date/timePositionNaut miles runAvg speedWind from/ knotsBaromVisibWave heightAir tempDewpointWater temp
2017-Sep-20 02:14N 34°05' E 135°03'314.0
2017-Sep-20 02:00N 34°08' E 135°04'4 6.4
2017-Sep-20 01:22N 34°10' E 135°09'0 0.1
2017-Sep-20 00:37N 34°10' E 135°09'0 0.1
2017-Sep-20 00:09N 34°10' E 135°09'0 0.0
2017-Sep-19 23:50N 34°10' E 135°09'0 0.0
2017-Sep-19 23:29N 34°10' E 135°09'0 0.0
2017-Sep-19 23:00N 34°10' E 135°09'0 0.1
2017-Sep-19 22:30N 34°10' E 135°09'0 0.2
2017-Sep-19 21:57N 34°09' E 135°09'0 0.1
2017-Sep-19 21:00N 34°09' E 135°09'0 0.0
2017-Sep-19 19:55N 34°10' E 135°09'0 0.1
2017-Sep-19 19:23N 34°09' E 135°09'0 0.1
2017-Sep-19 18:52N 34°09' E 135°09'0 0.1
2017-Sep-19 17:22N 34°10' E 135°09'0 0.0
2017-Sep-19 16:53N 34°10' E 135°09'0 0.0
2017-Sep-19 16:30N 34°10' E 135°09'0 0.0
2017-Sep-19 16:00N 34°10' E 135°09'0 0.0
2017-Sep-19 15:30N 34°09' E 135°09'0 0.0
2017-Sep-19 14:55N 34°09' E 135°09'0 0.0
2017-Sep-19 14:30N 34°09' E 135°09'0 0.1
2017-Sep-19 13:53N 34°09' E 135°09'0 0.1
2017-Sep-19 13:24N 34°09' E 135°09'0 0.0
2017-Sep-19 12:55N 34°09' E 135°09'0 0.1
2017-Sep-19 12:20N 34°09' E 135°09'0 0.0
2017-Sep-19 11:57N 34°09' E 135°09'0 0.1
2017-Sep-19 11:16N 34°10' E 135°09'0 0.0
2017-Sep-19 09:17N 34°10' E 135°09'0 0.0
2017-Sep-19 07:40N 34°10' E 135°09'0 0.0
2017-Sep-19 07:30N 34°10' E 135°09'0 0.0
2017-Sep-19 06:46N 34°10' E 135°09'0 0.0
2017-Sep-19 06:21N 34°10' E 135°09'0 0.0
2017-Sep-19 05:59N 34°09' E 135°09'0 0.1
2017-Sep-19 05:06N 34°09' E 135°09'0 0.1
2017-Sep-19 05:00N 34°09' E 135°09'0 0.0
2017-Sep-19 03:14N 34°09' E 135°09'0 0.0
2017-Sep-19 02:58N 34°09' E 135°09'0 0.0
2017-Sep-19 01:55N 34°09' E 135°09'0 0.0
2017-Sep-19 01:29N 34°09' E 135°09'0 0.0
2017-Sep-18 23:20N 34°09' E 135°09'0 0.0
2017-Sep-18 22:57N 34°09' E 135°09'0 0.0
2017-Sep-18 22:27N 34°10' E 135°09'0 0.0
2017-Sep-18 22:00N 34°10' E 135°09'0 0.0
2017-Sep-18 21:30N 34°10' E 135°09'0 0.0
2017-Sep-18 20:58N 34°10' E 135°09'0 0.0
2017-Sep-18 20:30N 34°10' E 135°09'0 0.0
2017-Sep-18 19:46N 34°10' E 135°09'0 0.0
2017-Sep-18 19:29N 34°10' E 135°09'0 0.0
2017-Sep-18 18:59N 34°10' E 135°09'0 0.0
2017-Sep-18 18:28N 34°10' E 135°09'0 0.0
2017-Sep-18 17:59N 34°10' E 135°09'0 0.0
2017-Sep-18 17:26N 34°10' E 135°09'0 0.0
2017-Sep-18 17:00N 34°09' E 135°09'0 0.0
2017-Sep-18 16:29N 34°09' E 135°09'0 0.0
2017-Sep-18 15:57N 34°09' E 135°09'0 0.1
2017-Sep-18 15:28N 34°09' E 135°09'0 0.0
2017-Sep-18 14:51N 34°09' E 135°09'0 0.0
2017-Sep-18 14:30N 34°09' E 135°09'0 0.1
2017-Sep-18 13:56N 34°09' E 135°09'0 0.1
2017-Sep-18 13:29N 34°10' E 135°09'0 0.0
2017-Sep-18 09:20N 34°10' E 135°09'2 6.7
2017-Sep-18 09:00N 34°09' E 135°11'1 0.2
2017-Sep-18 06:00N 34°09' E 135°12'0 0.0
2017-Sep-18 05:11N 34°09' E 135°12'0 0.0
2017-Sep-18 04:15N 34°09' E 135°12'0 0.0
2017-Sep-18 04:00N 34°09' E 135°12'0 0.0
2017-Sep-18 03:30N 34°09' E 135°12'0 0.0
2017-Sep-18 02:58N 34°09' E 135°12'0 0.5
2017-Sep-18 02:18N 34°09' E 135°12'1 4.8
2017-Sep-18 02:00N 34°09' E 135°10'5 9.2
2017-Sep-18 01:30N 34°11' E 135°05'713.9
2017-Sep-18 01:00N 34°16' E 134°59'713.7
2017-Sep-18 00:29N 34°23' E 135°01'713.8
2017-Sep-18 00:00N 34°27' E 135°07'4 7.3
2017-Sep-17 23:30N 34°29' E 135°11'0 0.1
2017-Sep-17 22:58N 34°29' E 135°11'0 0.0
2017-Sep-17 17:10N 34°29' E 135°11'0 0.0
2017-Sep-17 16:58N 34°29' E 135°11'0 0.0
2017-Sep-17 16:16N 34°29' E 135°11'0 0.0
2017-Sep-17 15:58N 34°29' E 135°11'0 0.1
2017-Sep-17 15:28N 34°29' E 135°11'0 0.1
2017-Sep-17 12:40N 34°29' E 135°11'0 0.1
2017-Sep-17 11:10N 34°29' E 135°10'0 0.0
2017-Sep-17 10:58N 34°29' E 135°10'0 0.0
2017-Sep-17 04:27N 34°29' E 135°10'0 0.0
2017-Sep-17 03:35N 34°29' E 135°10'0 0.0
2017-Sep-17 03:29N 34°29' E 135°10'0 0.0
2017-Sep-17 03:00N 34°29' E 135°10'0 0.0
2017-Sep-17 00:37N 34°29' E 135°10'0 0.0
2017-Sep-17 00:28N 34°29' E 135°10'0 0.0
2017-Sep-17 00:00N 34°29' E 135°10'0 0.0
2017-Sep-16 23:30N 34°29' E 135°10'0 0.0
2017-Sep-16 22:56N 34°29' E 135°10'1 1.4
2017-Sep-16 22:30N 34°29' E 135°10'612.4
2017-Sep-16 22:00N 34°34' E 135°05'610.9
2017-Sep-16 21:29N 34°37' E 134°59'1 0.0
2017-Sep-15 12:56N 34°37' E 134°58'510.5
2017-Sep-15 12:30N 34°36' E 135°04'612.9
2017-Sep-15 12:00N 34°34' E 135°11'713.8
2017-Sep-15 11:30N 34°33' E 135°19'4 0.4
2017-Sep-15 01:20N 34°32' E 135°24'3 7.7
2017-Sep-15 01:00N 34°32' E 135°21'2 0.2
2017-Sep-14 16:39N 34°32' E 135°19'0 0.7
2017-Sep-14 16:29N 34°32' E 135°20'5 9.7
2017-Sep-14 15:58N 34°33' E 135°25'0 0.0
2017-Sep-14 07:58N 34°33' E 135°25'3 7.4
2017-Sep-14 07:30N 34°33' E 135°21'1 1.8
2017-Sep-14 06:48N 34°32' E 135°20'0 0.0
2017-Sep-14 03:46N 34°32' E 135°20'0 0.1
2017-Sep-14 03:09N 34°32' E 135°20'0 0.4
2017-Sep-14 03:00N 34°32' E 135°20'0 0.0
2017-Sep-14 01:30N 34°32' E 135°20'0 0.0
2017-Sep-13 23:41N 34°32' E 135°20'0 0.0
2017-Sep-13 23:24N 34°32' E 135°20'0 0.1
2017-Sep-13 22:56N 34°32' E 135°20'510.9
2017-Sep-13 22:30N 34°32' E 135°14'612.9
2017-Sep-13 22:00N 34°33' E 135°06'815.1
2017-Sep-13 21:30N 34°37' E 134°58'  

Dump ship's entire track history